Time;durP1;ratioP1;P1;durP2;ratioP2;P2;SDS_P1;SDS_P2;PMS_P1;PMS_P2;Temp;Humidity;BMP_temperature;BMP_pressure;BME280_temperature;BME280_humidity;BME280_pressure;Samples;Min_cycle;Max_cycle;Signal;HPM_P1;HPM_P2
2024/03/29 00:00:46;;;;;;;3.30;0.90;;;;;;;9.14;100.00;99071.46;105880;1264;65752;-55
2024/03/29 00:03:13;;;;;;;4.90;0.90;;;;;;;9.11;100.00;99072.98;105948;1258;73260;-55
2024/03/29 00:05:41;;;;;;;3.80;1.00;;;;;;;9.10;100.00;99075.75;105904;1260;61416;-56
2024/03/29 00:08:08;;;;;;;1.70;0.80;;;;;;;9.07;100.00;99074.30;106025;1256;62850;-57
2024/03/29 00:10:35;;;;;;;6.40;1.40;;;;;;;9.05;100.00;99073.66;105933;1259;74760;-57
2024/03/29 00:13:02;;;;;;;2.70;0.80;;;;;;;9.04;100.00;99071.96;106097;1260;66993;-54
2024/03/29 00:15:31;;;;;;;2.70;0.90;;;;;;;9.02;100.00;99070.05;106017;1257;72777;-54
2024/03/29 00:17:59;;;;;;;5.50;0.90;;;;;;;9.01;100.00;99065.86;106317;1254;62023;-54
2024/03/29 00:20:28;;;;;;;8.00;1.40;;;;;;;8.99;100.00;99065.94;105936;1263;61148;-55
2024/03/29 00:22:56;;;;;;;5.20;1.20;;;;;;;8.98;100.00;99065.11;105983;1255;73452;-55
2024/03/29 00:25:25;;;;;;;4.80;1.20;;;;;;;8.96;100.00;99062.16;106324;1255;68048;-56
2024/03/29 00:27:53;;;;;;;1.90;0.90;;;;;;;8.94;100.00;99055.63;106002;1259;71488;-54
2024/03/29 00:30:20;;;;;;;5.00;1.20;;;;;;;8.93;100.00;99057.52;106019;1257;61310;-55
2024/03/29 00:32:47;;;;;;;4.00;1.50;;;;;;;8.90;100.00;99060.34;106007;1260;61270;-54
2024/03/29 00:35:15;;;;;;;4.20;1.40;;;;;;;8.89;100.00;99060.60;105935;1254;73394;-56
2024/03/29 00:37:42;;;;;;;3.30;0.90;;;;;;;8.87;100.00;99062.66;106042;1254;65966;-53
2024/03/29 00:40:10;;;;;;;6.60;1.30;;;;;;;8.84;100.00;99068.71;105913;1254;73205;-55
2024/03/29 00:42:38;;;;;;;9.20;1.40;;;;;;;8.82;100.00;99070.09;106145;1254;61286;-54
2024/03/29 00:45:05;;;;;;;10.60;1.50;;;;;;;8.79;100.00;99069.86;106053;1255;61304;-55
2024/03/29 00:47:41;;;;;;;3.00;1.30;;;;;;;8.78;100.00;99070.27;106288;1256;73465;-56
2024/03/29 00:50:09;;;;;;;3.90;1.30;;;;;;;8.77;100.00;99071.98;105974;1254;66916;-55
2024/03/29 00:52:36;;;;;;;4.70;1.00;;;;;;;8.75;100.00;99077.46;105923;1255;71471;-55
2024/03/29 00:55:05;;;;;;;3.10;1.00;;;;;;;8.73;100.00;99076.80;105930;1270;61314;-55
2024/03/29 00:57:32;;;;;;;3.70;0.90;;;;;;;8.73;100.00;99076.64;106208;1259;62121;-55
2024/03/29 00:59:59;;;;;;;6.10;1.40;;;;;;;8.72;100.00;99075.60;105991;1257;75047;-56
2024/03/29 01:02:27;;;;;;;6.70;1.30;;;;;;;8.72;100.00;99072.57;105990;1267;66928;-55
2024/03/29 01:04:54;;;;;;;5.90;1.50;;;;;;;8.72;100.00;99073.79;109170;1253;73149;-54
2024/03/29 01:07:21;;;;;;;4.40;1.00;;;;;;;8.73;100.00;99072.33;109270;1257;60356;-53
2024/03/29 01:09:48;;;;;;;3.00;1.00;;;;;;;8.74;100.00;99073.73;109047;1253;60255;-53
2024/03/29 01:12:16;;;;;;;2.30;1.00;;;;;;;8.76;100.00;99077.73;109094;1257;73566;-53
2024/03/29 01:14:43;;;;;;;3.40;1.10;;;;;;;8.79;100.00;99074.90;109166;1254;66120;-54
2024/03/29 01:17:10;;;;;;;6.80;1.00;;;;;;;8.82;100.00;99072.44;109126;1253;72673;-55
2024/03/29 01:19:37;;;;;;;1.50;0.80;;;;;;;8.83;100.00;99069.14;109179;1254;62264;-54
2024/03/29 01:22:05;;;;;;;2.10;0.70;;;;;;;8.84;100.00;99068.88;109178;1254;59054;-54
2024/03/29 01:24:32;;;;;;;4.00;1.10;;;;;;;8.87;100.00;99070.55;109211;1254;75201;-55
2024/03/29 01:26:59;;;;;;;5.20;1.20;;;;;;;8.87;100.00;99070.86;109111;1254;66912;-55
2024/03/29 01:29:27;;;;;;;4.40;1.00;;;;;;;8.88;100.00;99071.19;109088;1257;71487;-56
2024/03/29 01:31:54;;;;;;;5.20;1.00;;;;;;;8.88;100.00;99071.55;109098;1255;60406;-55
2024/03/29 01:34:21;;;;;;;4.10;0.90;;;;;;;8.88;100.00;99072.97;109203;1254;59952;-55
2024/03/29 01:36:48;;;;;;;2.90;1.00;;;;;;;8.88;100.00;99071.73;109094;1254;74695;-55
2024/03/29 01:39:18;;;;;;;8.30;0.90;;;;;;;8.87;100.00;99072.48;109267;1254;67170;-54
2024/03/29 01:41:45;;;;;;;6.10;1.00;;;;;;;8.87;100.00;99076.23;109113;1253;74978;-57
2024/03/29 01:44:13;;;;;;;5.40;0.90;;;;;;;8.88;100.00;99077.64;109087;1255;61720;-55
2024/03/29 01:46:41;;;;;;;2.50;0.80;;;;;;;8.89;100.00;99075.61;109129;1254;59546;-54
2024/03/29 01:49:09;;;;;;;2.90;0.80;;;;;;;8.91;100.00;99081.09;109140;1259;74716;-55
2024/03/29 01:51:37;;;;;;;2.40;0.90;;;;;;;8.91;100.00;99078.89;109149;1254;64724;-55
2024/03/29 01:54:04;;;;;;;3.90;0.90;;;;;;;8.92;100.00;99077.25;109079;1253;72735;-54
2024/03/29 01:56:31;;;;;;;4.60;0.80;;;;;;;8.93;100.00;99077.21;109054;1254;61552;-55
2024/03/29 01:58:58;;;;;;;3.70;1.20;;;;;;;8.93;100.00;99080.80;106746;1261;61346;-56
2024/03/29 02:01:26;;;;;;;7.90;0.90;;;;;;;8.93;100.00;99079.20;105905;1267;73757;-57
2024/03/29 02:03:54;;;;;;;3.10;0.80;;;;;;;8.91;100.00;99077.50;105990;1257;68350;-55
2024/03/29 02:06:21;;;;;;;5.00;0.80;;;;;;;8.90;100.00;99073.92;106006;1258;71814;-55
2024/03/29 02:08:54;;;;;;;5.00;1.00;;;;;;;8.91;100.00;99079.48;105887;1260;62574;-55
2024/03/29 02:11:21;;;;;;;6.70;0.90;;;;;;;8.90;100.00;99079.67;106074;1254;60998;-55
2024/03/29 02:13:49;;;;;;;2.60;0.90;;;;;;;8.89;100.00;99078.11;106035;1266;74701;-55
2024/03/29 02:16:17;;;;;;;4.50;0.80;;;;;;;8.87;100.00;99073.02;106134;1254;66234;-55
2024/03/29 02:18:44;;;;;;;7.90;1.00;;;;;;;8.85;100.00;99072.23;105904;1263;72710;-55
2024/03/29 02:21:11;;;;;;;3.40;1.30;;;;;;;8.83;100.00;99075.40;105886;1268;62415;-54
2024/03/29 02:23:42;;;;;;;3.40;1.10;;;;;;;8.80;100.00;99076.96;105966;1272;61950;-56
2024/03/29 02:26:10;;;;;;;4.50;0.90;;;;;;;8.78;100.00;99075.10;105873;1260;74612;-58
2024/03/29 02:28:37;;;;;;;3.60;1.00;;;;;;;8.76;100.00;99078.81;106102;1267;65768;-56
2024/03/29 02:31:04;;;;;;;6.70;1.50;;;;;;;8.75;100.00;99077.43;105986;1260;73760;-53
2024/03/29 02:33:31;;;;;;;3.10;1.20;;;;;;;8.75;100.00;99075.47;106219;1270;62226;-54
2024/03/29 02:35:59;;;;;;;3.40;0.90;;;;;;;8.73;100.00;99072.52;105878;1267;61349;-54
2024/03/29 02:38:26;;;;;;;2.80;0.90;;;;;;;8.72;100.00;99075.95;106007;1257;74690;-53
2024/03/29 02:40:53;;;;;;;5.30;0.90;;;;;;;8.70;100.00;99067.66;106001;1256;65498;-53
2024/03/29 02:43:20;;;;;;;2.60;1.20;;;;;;;8.68;100.00;99068.80;105974;1258;72804;-56
2024/03/29 02:45:48;;;;;;;2.30;1.10;;;;;;;8.67;100.00;99070.86;105953;1260;61861;-54
2024/03/29 02:48:15;;;;;;;3.60;1.00;;;;;;;8.66;100.00;99069.67;105972;1259;61336;-55
2024/03/29 02:50:42;;;;;;;7.80;1.00;;;;;;;8.65;100.00;99070.77;105917;1259;75072;-53
2024/03/29 02:53:10;;;;;;;1.50;0.70;;;;;;;8.65;100.00;99069.19;105915;1268;66747;-57
2024/03/29 02:55:37;;;;;;;3.10;1.50;;;;;;;8.64;100.00;99069.94;105929;1253;72761;-54
2024/03/29 02:58:04;;;;;;;1.60;0.90;;;;;;;8.63;100.00;99067.85;105941;1267;61346;-55
2024/03/29 03:00:31;;;;;;;5.50;1.10;;;;;;;8.62;100.00;99065.93;105952;1258;61099;-57
2024/03/29 03:03:00;;;;;;;4.40;0.80;;;;;;;8.61;100.00;99066.16;106287;1254;74553;-53
2024/03/29 03:05:27;;;;;;;1.80;0.80;;;;;;;8.59;100.00;99067.52;105967;1257;65947;-55
2024/03/29 03:10:56;;;;;;;4.90;0.80;;;;;;;8.60;100.00;99068.52;105930;1257;62268;-54
2024/03/29 03:13:23;;;;;;;3.10;1.20;;;;;;;8.60;100.00;99069.04;106006;1256;61217;-54
2024/03/29 03:15:51;;;;;;;3.20;1.00;;;;;;;8.62;100.00;99067.15;105970;1268;74618;-54
2024/03/29 03:18:18;;;;;;;3.80;1.00;;;;;;;8.65;100.00;99068.83;105929;1269;65629;-55
2024/03/29 03:20:55;;;;;;;3.00;0.80;;;;;;;8.66;100.00;99071.45;105916;1267;72600;-55
2024/03/29 03:23:22;;;;;;;4.90;0.80;;;;;;;8.67;100.00;99073.20;106354;1260;62166;-56
2024/03/29 03:25:54;;;;;;;3.00;0.80;;;;;;;8.67;100.00;99072.97;105932;1255;60105;-55
2024/03/29 03:28:21;;;;;;;5.30;0.80;;;;;;;8.70;100.00;99074.81;106238;1257;74608;-55
2024/03/29 03:30:52;;;;;;;5.80;0.90;;;;;;;8.72;100.00;99073.45;105994;1257;67118;-56
2024/03/29 03:33:20;;;;;;;3.40;0.80;;;;;;;8.73;100.00;99076.99;106065;1254;75530;-54
2024/03/29 03:35:47;;;;;;;4.00;0.80;;;;;;;8.73;100.00;99082.54;105995;1257;61199;-52
2024/03/29 03:38:15;;;;;;;4.20;0.70;;;;;;;8.73;100.00;99079.29;105980;1258;61317;-54
2024/03/29 03:40:42;;;;;;;5.20;1.00;;;;;;;8.75;100.00;99083.90;106801;1254;74710;-54
2024/03/29 03:43:10;;;;;;;3.40;0.90;;;;;;;8.74;100.00;99077.66;106010;1257;65530;-53
2024/03/29 03:45:38;;;;;;;2.00;0.70;;;;;;;8.76;100.00;99082.79;105997;1258;72739;-55
2024/03/29 03:48:10;;;;;;;3.60;0.90;;;;;;;8.77;100.00;99077.67;106052;1260;62190;-55
2024/03/29 03:50:38;;;;;;;3.50;0.80;;;;;;;8.79;100.00;99075.77;106180;1259;60128;-55
2024/03/29 03:53:05;;;;;;;2.20;0.80;;;;;;;8.82;100.00;99076.55;106026;1254;73819;-55
2024/03/29 03:55:36;;;;;;;2.40;0.70;;;;;;;8.84;100.00;99074.80;106027;1263;66238;-53
2024/03/29 03:58:03;;;;;;;5.70;0.70;;;;;;;8.88;100.00;99074.79;106079;1254;72713;-55
2024/03/29 04:00:31;;;;;;;2.50;0.80;;;;;;;8.91;100.00;99075.16;106833;1254;61170;-56
2024/03/29 04:02:58;;;;;;;4.90;0.80;;;;;;;8.93;100.00;99071.27;105973;1254;61298;-55
2024/03/29 04:05:26;;;;;;;4.30;1.60;;;;;;;8.95;100.00;99067.23;107712;1257;74739;-55
2024/03/29 04:07:53;;;;;;;1.70;0.80;;;;;;;8.96;100.00;99071.30;106297;1257;64663;-54
2024/03/29 04:10:20;;;;;;;3.20;0.90;;;;;;;8.96;100.00;99070.95;106000;1258;72949;-53
2024/03/29 04:12:50;;;;;;;3.20;0.80;;;;;;;8.96;100.00;99075.04;109050;1253;61040;-54
2024/03/29 04:15:17;;;;;;;3.40;0.80;;;;;;;8.97;100.00;99076.41;108906;1253;273171;-54
2024/03/29 04:18:41;;;;;;;4.50;1.10;;;;;;;9.00;100.00;99080.39;102722;1303;601183;-56
2024/03/29 04:21:08;;;;;;;4.30;1.40;;;;;;;9.00;100.00;99087.56;105152;1269;60556;-54
2024/03/29 04:23:36;;;;;;;9.20;0.90;;;;;;;9.01;100.00;99083.95;105164;1275;59690;-52
2024/03/29 04:26:03;;;;;;;4.20;1.10;;;;;;;9.01;100.00;99092.38;105077;1279;72047;-54
2024/03/29 04:28:30;;;;;;;8.90;2.30;;;;;;;9.00;100.00;99093.48;105075;1278;66918;-55
2024/03/29 04:30:59;;;;;;;3.30;1.20;;;;;;;8.99;100.00;99088.69;105135;1272;71494;-55
2024/03/29 04:33:26;;;;;;;3.70;1.30;;;;;;;8.99;100.00;99092.27;108384;1264;204912;-53
2024/03/29 04:35:57;;;;;;;8.80;1.20;;;;;;;8.99;100.00;99089.58;108423;1263;60053;-53
2024/03/29 04:38:24;;;;;;;2.40;1.00;;;;;;;9.01;100.00;99088.60;108397;1267;73117;-55
2024/03/29 04:40:53;;;;;;;4.60;1.10;;;;;;;9.02;100.00;99083.53;108394;1263;65746;-55
2024/03/29 04:43:24;;;;;;;3.90;1.30;;;;;;;9.03;100.00;99085.05;107183;1264;73232;-58
2024/03/29 04:46:09;;;;;;;3.50;1.00;;;;;;;9.04;100.00;99088.77;105248;1268;60673;-55
2024/03/29 04:48:37;;;;;;;3.70;1.00;;;;;;;9.05;100.00;99089.95;108425;1263;60179;-55
2024/03/29 04:51:04;;;;;;;6.00;0.90;;;;;;;9.06;100.00;99093.67;108474;1263;72549;-55
2024/03/29 04:53:32;;;;;;;4.00;1.20;;;;;;;9.07;100.00;99093.08;108561;1263;67288;-55
2024/03/29 04:55:59;;;;;;;3.20;1.00;;;;;;;9.07;100.00;99095.22;108476;1263;72615;-54
2024/03/29 04:58:26;;;;;;;4.50;0.90;;;;;;;9.10;100.00;99099.20;108408;1263;61743;-54
2024/03/29 05:00:54;;;;;;;6.30;1.30;;;;;;;9.11;100.00;99097.33;106294;1266;60182;-56
2024/03/29 05:03:21;;;;;;;2.30;0.90;;;;;;;9.13;100.00;99095.98;105180;1269;73959;-56
2024/03/29 05:05:52;;;;;;;2.60;0.90;;;;;;;9.15;100.00;99095.90;105455;1282;66937;-53
2024/03/29 05:08:21;;;;;;;3.10;1.00;;;;;;;9.17;100.00;99096.16;105294;1266;71593;-55
2024/03/29 05:10:50;;;;;;;8.10;1.10;;;;;;;9.19;100.00;99098.21;106271;1268;60029;-55
2024/03/29 05:13:18;;;;;;;3.40;1.20;;;;;;;9.20;100.00;99102.62;105623;1269;60452;-53
2024/03/29 05:15:47;;;;;;;2.70;0.80;;;;;;;9.22;100.00;99097.67;105949;1268;72684;-54
2024/03/29 05:18:14;;;;;;;3.40;1.00;;;;;;;9.25;100.00;99092.71;107439;1263;66919;-54
2024/03/29 05:20:46;;;;;;;2.80;1.30;;;;;;;9.27;100.00;99093.63;105157;1269;72682;-55
2024/03/29 05:23:14;;;;;;;3.90;1.20;;;;;;;9.31;100.00;99086.46;105241;1267;60473;-58
2024/03/29 05:25:41;;;;;;;1.60;0.80;;;;;;;9.34;100.00;99078.61;105188;1269;60398;-55
2024/03/29 05:28:10;;;;;;;3.80;1.10;;;;;;;9.38;100.00;99084.63;105248;1266;73945;-57
2024/03/29 05:30:37;;;;;;;4.70;1.00;;;;;;;9.42;100.00;99076.86;105494;1263;66754;-56
2024/03/29 05:33:06;;;;;;;3.70;1.20;;;;;;;9.46;100.00;99077.36;105173;1269;72779;-54
2024/03/29 05:35:33;;;;;;;4.10;1.30;;;;;;;9.50;100.00;99079.16;105157;1269;60562;-55
2024/03/29 05:38:01;;;;;;;4.20;0.80;;;;;;;9.53;100.00;99086.35;105193;1270;60553;-55
2024/03/29 05:40:28;;;;;;;3.60;0.90;;;;;;;9.54;100.00;99074.64;105174;1271;73965;-55
2024/03/29 05:42:56;;;;;;;6.80;1.10;;;;;;;9.56;100.00;99077.00;105167;1270;67350;-55
2024/03/29 05:45:28;;;;;;;3.10;0.90;;;;;;;9.59;100.00;99082.61;105202;1268;71468;-56
2024/03/29 05:47:56;;;;;;;3.80;1.30;;;;;;;9.61;100.00;99066.92;105104;1263;61771;-54
2024/03/29 05:50:23;;;;;;;4.40;0.90;;;;;;;9.64;100.00;99068.32;105087;1266;60319;-54
2024/03/29 05:52:52;;;;;;;4.80;1.00;;;;;;;9.68;100.00;99077.98;105316;1269;72949;-55
2024/03/29 05:55:19;;;;;;;2.40;1.00;;;;;;;9.71;100.00;99098.55;105597;1266;67070;-55
2024/03/29 05:57:48;;;;;;;2.70;1.00;;;;;;;9.74;100.00;99100.55;105543;1273;73247;-55
2024/03/29 06:00:16;;;;;;;2.80;0.90;;;;;;;9.77;100.00;99095.77;105703;1279;60473;-56
2024/03/29 06:02:45;;;;;;;8.50;1.10;;;;;;;9.79;100.00;99090.59;105663;1256;60593;-55
2024/03/29 06:05:12;;;;;;;2.00;0.90;;;;;;;9.82;100.00;99096.70;105745;1273;71690;-56
2024/03/29 06:07:40;;;;;;;3.50;1.20;;;;;;;9.85;100.00;99124.34;106042;1262;66405;-54
2024/03/29 06:10:08;;;;;;;6.90;1.20;;;;;;;9.88;100.00;99130.59;105669;1262;72760;-55
2024/03/29 06:12:38;;;;;;;5.90;1.60;;;;;;;9.90;100.00;99128.15;105708;1263;61417;-53
2024/03/29 06:17:52;;;;;;;2.40;1.20;;;;;;;9.97;100.00;99125.10;105750;1263;72692;-56
2024/03/29 06:20:19;;;;;;;7.30;1.10;;;;;;;10.00;100.00;99130.14;105702;1263;67233;-58
2024/03/29 06:22:46;;;;;;;3.50;1.40;;;;;;;10.03;100.00;99137.66;105826;1263;75045;-55
2024/03/29 06:25:15;;;;;;;3.90;1.00;;;;;;;10.06;100.00;99150.40;105905;1263;60804;-54
2024/03/29 06:27:47;;;;;;;2.80;1.00;;;;;;;10.09;100.00;99159.72;106240;1262;60419;-56
2024/03/29 06:30:19;;;;;;;1.80;1.00;;;;;;;10.11;100.00;99146.13;105743;1264;75339;-55
2024/03/29 06:32:46;;;;;;;4.20;1.00;;;;;;;10.13;100.00;99142.63;105627;1263;67177;-54
2024/03/29 06:35:13;;;;;;;4.60;1.20;;;;;;;10.16;100.00;99152.53;105705;1262;74927;-55
2024/03/29 06:37:42;;;;;;;2.90;0.90;;;;;;;10.18;100.00;99163.73;105866;1272;60627;-55
2024/03/29 06:40:10;;;;;;;1.90;0.80;;;;;;;10.20;100.00;99163.25;105909;1259;60998;-55
2024/03/29 06:42:38;;;;;;;2.50;0.70;;;;;;;10.22;100.00;99152.72;106084;1262;73168;-54
2024/03/29 06:45:06;;;;;;;3.80;0.70;;;;;;;10.24;100.00;99163.19;105681;1263;67928;-57
2024/03/29 06:47:34;;;;;;;1.30;0.70;;;;;;;10.28;100.00;99170.54;107126;1262;71460;-56
2024/03/29 06:50:01;;;;;;;2.10;0.70;;;;;;;10.33;100.00;99178.00;105540;1273;60413;-54
2024/03/29 06:52:28;;;;;;;2.10;0.90;;;;;;;10.36;100.00;99186.96;105632;1264;60625;-54
2024/03/29 06:54:56;;;;;;;2.10;0.80;;;;;;;10.39;100.00;99185.31;105621;1266;75887;-55
2024/03/29 06:57:25;;;;;;;4.50;1.00;;;;;;;10.40;100.00;99181.31;105544;1263;67492;-53
2024/03/29 06:59:52;;;;;;;3.50;0.90;;;;;;;10.41;100.00;99182.18;105676;1276;72749;-55
2024/03/29 07:02:19;;;;;;;4.40;0.70;;;;;;;10.39;100.00;99179.95;105586;1273;61851;-55
2024/03/29 07:04:47;;;;;;;2.80;0.80;;;;;;;10.36;100.00;99176.36;105713;1263;60428;-54
2024/03/29 07:07:18;;;;;;;5.20;1.30;;;;;;;10.32;100.00;99167.23;106070;1259;76015;-55
2024/03/29 07:09:45;;;;;;;4.60;1.00;;;;;;;10.30;100.00;99169.14;105538;1264;66864;-56
2024/03/29 07:12:13;;;;;;;4.10;0.90;;;;;;;10.28;100.00;99165.31;105581;1263;72062;-56
2024/03/29 07:14:40;;;;;;;2.30;0.70;;;;;;;10.26;100.00;99168.15;105529;1265;61356;-55
2024/03/29 07:17:07;;;;;;;3.80;1.20;;;;;;;10.23;100.00;99163.08;105628;1262;61038;-56
2024/03/29 07:19:35;;;;;;;4.60;0.80;;;;;;;10.21;100.00;99156.52;105597;1263;72669;-56
2024/03/29 07:22:02;;;;;;;3.90;0.90;;;;;;;10.19;100.00;99152.91;105842;1255;65803;-56
2024/03/29 07:24:29;;;;;;;3.80;0.70;;;;;;;10.17;100.00;99151.57;106004;1258;71316;-55
2024/03/29 07:26:56;;;;;;;4.10;1.20;;;;;;;10.14;100.00;99145.63;106055;1269;60350;-59
2024/03/29 07:29:24;;;;;;;1.50;0.90;;;;;;;10.13;100.00;99145.34;105928;1254;60543;-56
2024/03/29 07:31:52;;;;;;;3.90;0.80;;;;;;;10.10;100.00;99149.27;106076;1259;71883;-56
2024/03/29 07:34:19;;;;;;;2.70;0.80;;;;;;;10.07;100.00;99148.73;109093;1254;65766;-55
2024/03/29 07:36:47;;;;;;;3.40;0.90;;;;;;;10.04;100.00;99159.46;108923;1254;71401;-57
2024/03/29 07:39:14;;;;;;;2.60;0.90;;;;;;;10.03;100.00;99161.16;109154;1254;61138;-56
2024/03/29 07:41:41;;;;;;;2.10;0.70;;;;;;;10.03;100.00;99168.52;109147;1254;58841;-56
2024/03/29 07:44:08;;;;;;;4.00;1.00;;;;;;;10.03;100.00;99181.23;106430;1259;74093;-57
2024/03/29 07:46:37;;;;;;;8.30;1.60;;;;;;;10.04;100.00;99178.45;106005;1257;66405;-55
2024/03/29 07:49:04;;;;;;;5.40;1.60;;;;;;;10.05;100.00;99169.98;109158;1255;72788;-57
2024/03/29 07:51:31;;;;;;;7.40;2.90;;;;;;;10.06;100.00;99168.48;109028;1254;60472;-55
2024/03/29 07:53:58;;;;;;;7.60;2.60;;;;;;;10.06;100.00;99166.34;108549;1255;59370;-56
2024/03/29 07:56:26;;;;;;;5.60;1.50;;;;;;;10.06;100.00;99141.80;105934;1254;73020;-55
2024/03/29 07:58:53;;;;;;;5.80;1.30;;;;;;;10.06;100.00;99152.15;106051;1257;65811;-55
2024/03/29 08:01:21;;;;;;;5.60;1.30;;;;;;;10.05;100.00;99152.04;106423;1259;71483;-56
2024/03/29 08:03:56;;;;;;;6.50;1.20;;;;;;;10.02;100.00;99155.25;106432;1267;60514;-57
2024/03/29 08:06:23;;;;;;;5.60;1.60;;;;;;;9.99;100.00;99134.10;106068;1258;60794;-56
2024/03/29 08:08:50;;;;;;;4.60;1.30;;;;;;;9.95;100.00;99142.59;106079;1270;72998;-55
2024/03/29 08:11:18;;;;;;;6.10;1.60;;;;;;;9.90;100.00;99145.21;106041;1254;66893;-56
2024/03/29 08:13:45;;;;;;;3.80;1.50;;;;;;;9.86;100.00;99146.86;106027;1257;72815;-55
2024/03/29 08:16:12;;;;;;;5.70;2.20;;;;;;;9.82;100.00;99148.11;106096;1259;62787;-55
2024/03/29 08:18:39;;;;;;;1.80;1.40;;;;;;;9.79;100.00;99152.02;106061;1254;62425;-56
2024/03/29 08:21:11;;;;;;;3.20;1.40;;;;;;;9.76;100.00;99151.52;105938;1258;74361;-55
2024/03/29 08:23:40;;;;;;;5.20;2.00;;;;;;;9.75;100.00;99142.45;105978;1254;64833;-59
2024/03/29 08:26:07;;;;;;;7.10;4.00;;;;;;;9.74;100.00;99138.02;106187;1270;72675;-58
2024/03/29 08:28:37;;;;;;;13.40;8.10;;;;;;;9.75;100.00;99130.42;106095;1260;61293;-55
2024/03/29 08:31:09;;;;;;;6.10;2.50;;;;;;;9.78;100.00;99125.98;106302;1254;61276;-58
2024/03/29 08:33:39;;;;;;;4.20;2.00;;;;;;;9.78;100.00;99109.48;106122;1256;76497;-57
2024/03/29 08:36:14;;;;;;;4.80;1.70;;;;;;;9.77;100.00;99119.75;106339;1259;66099;-56
2024/03/29 08:38:43;;;;;;;2.60;1.20;;;;;;;9.76;100.00;99115.14;106159;1270;71402;-54
2024/03/29 08:41:10;;;;;;;4.80;1.70;;;;;;;9.75;100.00;99119.34;106024;1260;61281;-54
2024/03/29 08:43:37;;;;;;;3.00;1.80;;;;;;;9.74;100.00;99117.76;105930;1253;61543;-55
2024/03/29 08:46:05;;;;;;;1.60;1.10;;;;;;;9.73;100.00;99111.37;105980;1258;74655;-54
2024/03/29 08:48:32;;;;;;;5.70;2.60;;;;;;;9.72;100.00;99109.08;105959;1254;66099;-54
2024/03/29 08:50:59;;;;;;;2.10;1.30;;;;;;;9.73;100.00;99099.20;105901;1269;72110;-55
2024/03/29 08:53:27;;;;;;;6.20;1.10;;;;;;;9.74;100.00;99091.77;105961;1267;61347;-58
2024/03/29 08:55:54;;;;;;;2.70;1.80;;;;;;;9.74;100.00;99091.61;105927;1266;61386;-56
2024/03/29 08:58:23;;;;;;;7.00;1.80;;;;;;;9.73;100.00;99093.29;106016;1257;76059;-54
2024/03/29 09:00:55;;;;;;;3.10;1.00;;;;;;;9.70;100.00;99103.11;106223;1254;67719;-55
2024/03/29 09:03:23;;;;;;;3.80;1.30;;;;;;;9.67;100.00;99106.18;106891;1254;71483;-56
2024/03/29 09:05:50;;;;;;;1.90;1.30;;;;;;;9.63;100.00;99104.56;105992;1254;61334;-55
2024/03/29 09:08:18;;;;;;;4.10;1.00;;;;;;;9.60;100.00;99106.33;106039;1258;61402;-54
2024/03/29 09:10:45;;;;;;;3.20;1.00;;;;;;;9.60;100.00;99106.73;106767;1257;76839;-56
2024/03/29 09:13:13;;;;;;;4.80;0.90;;;;;;;9.61;100.00;99099.17;106091;1256;65805;-56
2024/03/29 09:15:40;;;;;;;3.10;1.30;;;;;;;9.62;100.00;99103.54;106184;1267;74896;-56
2024/03/29 09:18:17;;;;;;;4.00;1.10;;;;;;;9.65;100.00;99101.41;105991;1265;61407;-56
2024/03/29 09:20:44;;;;;;;4.10;1.10;;;;;;;9.72;100.00;99103.19;106112;1261;61407;-54
2024/03/29 09:23:16;;;;;;;1.60;0.90;;;;;;;9.80;100.00;99098.08;106209;1255;75388;-55
2024/03/29 09:25:44;;;;;;;2.70;1.20;;;;;;;9.90;100.00;99094.09;106058;1254;64750;-56
2024/03/29 09:28:11;;;;;;;2.90;1.30;;;;;;;10.02;100.00;99094.18;106132;1257;72779;-54
2024/03/29 09:30:38;;;;;;;4.60;1.30;;;;;;;10.12;100.00;99090.00;106013;1259;61276;-55
2024/03/29 09:33:09;;;;;;;4.90;1.20;;;;;;;10.24;100.00;99086.32;106073;1255;61477;-56
2024/03/29 09:35:36;;;;;;;4.80;1.30;;;;;;;10.37;100.00;99088.77;107897;1254;73835;-55
2024/03/29 09:38:04;;;;;;;3.70;1.00;;;;;;;10.50;100.00;99086.77;106268;1257;69281;-55
2024/03/29 09:40:32;;;;;;;2.60;1.30;;;;;;;10.63;100.00;99087.92;106329;1259;72702;-55
2024/03/29 09:43:02;;;;;;;3.90;1.00;;;;;;;10.76;100.00;99084.67;106359;1254;62132;-55
2024/03/29 09:45:37;;;;;;;1.90;1.20;;;;;;;10.91;100.00;99081.59;106081;1259;64162;-55
2024/03/29 09:48:08;;;;;;;2.40;0.90;;;;;;;11.07;100.00;99080.13;106057;1255;73788;-57
2024/03/29 09:50:36;;;;;;;2.90;1.00;;;;;;;11.22;100.00;99082.41;106118;1260;66279;-54
2024/03/29 09:53:04;;;;;;;2.60;1.20;;;;;;;11.32;100.00;99079.27;105936;1260;73976;-57
2024/03/29 09:55:31;;;;;;;3.30;1.00;;;;;;;11.40;100.00;99082.02;106077;1254;61333;-55
2024/03/29 09:57:59;;;;;;;4.50;1.20;;;;;;;11.46;100.00;99087.57;106095;1254;61289;-56
2024/03/29 10:00:27;;;;;;;1.10;0.80;;;;;;;11.50;100.00;99089.11;106350;1257;74715;-57
2024/03/29 10:02:56;;;;;;;1.60;0.90;;;;;;;11.51;100.00;99093.01;105933;1270;65776;-58
2024/03/29 10:05:26;;;;;;;1.00;0.70;;;;;;;11.51;100.00;99096.05;106224;1259;72742;-55
2024/03/29 10:07:54;;;;;;;1.90;0.60;;;;;;;11.51;100.00;99092.10;109113;1253;61822;-55
2024/03/29 10:10:21;;;;;;;1.10;0.70;;;;;;;11.51;100.00;99097.46;107510;1257;60895;-59
2024/03/29 10:12:48;;;;;;;1.90;0.70;;;;;;;11.50;100.00;99094.29;106019;1258;74926;-56
2024/03/29 10:15:18;;;;;;;2.60;0.80;;;;;;;11.49;100.00;99091.66;109063;1253;69299;-53
2024/03/29 10:17:45;;;;;;;2.80;0.90;;;;;;;11.49;100.00;99099.08;109067;1254;72687;-53
2024/03/29 10:20:17;;;;;;;2.50;0.70;;;;;;;11.50;100.00;99101.86;109050;1253;60964;-53
2024/03/29 10:22:45;;;;;;;6.50;0.90;;;;;;;11.55;100.00;99099.05;109197;1254;60240;-56
2024/03/29 10:25:13;;;;;;;3.10;0.80;;;;;;;11.62;100.00;99100.20;109014;1254;74868;-55
2024/03/29 10:27:40;;;;;;;1.30;0.60;;;;;;;11.71;100.00;99104.84;106129;1270;66251;-57
2024/03/29 10:30:08;;;;;;;1.40;0.80;;;;;;;11.80;100.00;99105.00;109213;1253;71807;-57
2024/03/29 10:32:42;;;;;;;1.20;0.60;;;;;;;11.90;100.00;99107.09;109067;1253;60776;-54
2024/03/29 10:35:09;;;;;;;2.20;0.60;;;;;;;11.98;100.00;99108.52;109049;1254;59171;-55
2024/03/29 10:37:40;;;;;;;2.50;1.50;;;;;;;12.04;100.00;99108.85;109081;1253;74696;-55
2024/03/29 10:40:11;;;;;;;2.50;0.70;;;;;;;12.08;100.00;99117.02;109203;1253;67378;-58
2024/03/29 10:42:38;;;;;;;1.10;0.60;;;;;;;12.10;100.00;99117.64;109058;1254;71799;-56
2024/03/29 10:45:06;;;;;;;3.00;0.70;;;;;;;12.11;100.00;99125.45;108870;1254;60530;-58
2024/03/29 10:47:34;;;;;;;2.10;0.90;;;;;;;12.13;100.00;99129.88;109129;1253;59521;-57
2024/03/29 10:50:05;;;;;;;2.70;0.70;;;;;;;12.13;100.00;99133.63;109173;1255;74741;-56
2024/03/29 10:52:32;;;;;;;1.50;0.80;;;;;;;12.11;100.00;99140.95;108974;1253;66438;-56
2024/03/29 10:54:59;;;;;;;3.00;0.90;;;;;;;12.08;100.00;99143.14;106504;1257;74750;-54
2024/03/29 10:57:27;;;;;;;1.90;0.70;;;;;;;12.02;100.00;99150.36;105901;1261;61305;-56
2024/03/29 11:00:11;;;;;;;1.70;0.90;;;;;;;11.93;100.00;99161.86;105990;1260;61292;-53
2024/03/29 11:02:57;;;;;;;3.60;0.90;;;;;;;11.83;100.00;99167.00;106181;1254;73624;-56
2024/03/29 11:05:24;;;;;;;1.30;0.90;;;;;;;11.69;100.00;99175.03;105953;1254;69258;-55
2024/03/29 11:07:52;;;;;;;2.10;1.00;;;;;;;11.58;100.00;99174.29;105939;1255;73185;-56
2024/03/29 11:10:26;;;;;;;2.20;0.90;;;;;;;11.52;100.00;99178.29;105848;1255;61403;-54
2024/03/29 11:13:14;;;;;;;3.60;0.80;;;;;;;11.46;100.00;99181.36;107389;1256;62149;-54
2024/03/29 11:15:42;;;;;;;3.00;1.20;;;;;;;11.41;100.00;99190.80;105985;1259;73602;-58
2024/03/29 11:18:09;;;;;;;2.50;1.10;;;;;;;11.38;100.00;99189.52;105919;1259;65856;-55
2024/03/29 11:20:42;;;;;;;2.30;1.10;;;;;;;11.36;100.00;99193.78;106037;1270;72926;-56
2024/03/29 11:23:11;;;;;;;1.80;1.30;;;;;;;11.32;100.00;99197.06;106424;1257;61769;-57
2024/03/29 11:25:45;;;;;;;3.00;0.80;;;;;;;11.28;100.00;99199.29;106515;1254;61788;-56
2024/03/29 11:28:13;;;;;;;;;;;;;;;11.26;100.00;99204.45;106142;1259;73725;-56
2024/03/29 11:30:47;;;;;;;1.50;0.80;;;;;;;11.24;100.00;99209.92;105949;1259;66068;-56
2024/03/29 11:33:29;;;;;;;1.40;0.90;;;;;;;11.23;100.00;99211.98;106020;1264;76240;-56